sensor_id;sensor_type;location;lat;lon;timestamp;pressure;altitude;pressure_sealevel;temperature;humidity
26839;BME280;40088;51.214;6.786;2023-02-08T00:02:16;103585.44;;;16.68;42.79
26839;BME280;40088;51.214;6.786;2023-02-08T00:12:16;103582.84;;;16.67;42.69
26839;BME280;40088;51.214;6.786;2023-02-08T00:22:16;103570.94;;;16.66;42.79
26839;BME280;40088;51.214;6.786;2023-02-08T00:32:17;103569.06;;;16.67;42.75
26839;BME280;40088;51.214;6.786;2023-02-08T00:42:17;103559.06;;;16.66;42.76
26839;BME280;40088;51.214;6.786;2023-02-08T00:52:18;103550.94;;;16.64;42.81
26839;BME280;40088;51.214;6.786;2023-02-08T01:02:18;103550.81;;;16.66;43.24
26839;BME280;40088;51.214;6.786;2023-02-08T01:12:18;103539.91;;;16.64;42.81
26839;BME280;40088;51.214;6.786;2023-02-08T01:22:18;103546.31;;;16.65;42.62
26839;BME280;40088;51.214;6.786;2023-02-08T01:32:19;103545.44;;;16.64;42.64
26839;BME280;40088;51.214;6.786;2023-02-08T01:42:19;103552.78;;;16.64;42.56
26839;BME280;40088;51.214;6.786;2023-02-08T01:52:23;103536.25;;;16.64;42.30
26839;BME280;40088;51.214;6.786;2023-02-08T02:02:24;103530.75;;;16.64;42.62
26839;BME280;40088;51.214;6.786;2023-02-08T02:12:25;103529.00;;;16.63;42.48
26839;BME280;40088;51.214;6.786;2023-02-08T02:32:47;103517.25;;;16.61;42.55
26839;BME280;40088;51.214;6.786;2023-02-08T02:43:07;103516.25;;;16.62;42.34
26839;BME280;40088;51.214;6.786;2023-02-08T02:53:53;103509.88;;;16.61;42.79
26839;BME280;40088;51.214;6.786;2023-02-08T03:03:55;103497.13;;;16.60;42.28
26839;BME280;40088;51.214;6.786;2023-02-08T03:14:20;103502.50;;;16.62;42.41
26839;BME280;40088;51.214;6.786;2023-02-08T03:35:02;103506.38;;;16.59;42.36
26839;BME280;40088;51.214;6.786;2023-02-08T03:45:32;103510.88;;;16.60;42.22
26839;BME280;40088;51.214;6.786;2023-02-08T03:55:34;103507.25;;;16.60;42.43
26839;BME280;40088;51.214;6.786;2023-02-08T04:05:35;103519.16;;;16.60;42.32
26839;BME280;40088;51.214;6.786;2023-02-08T04:15:36;103511.91;;;16.59;42.26
26839;BME280;40088;51.214;6.786;2023-02-08T04:25:36;103518.13;;;16.61;42.20
26839;BME280;40088;51.214;6.786;2023-02-08T04:35:36;103523.66;;;16.61;42.15
26839;BME280;40088;51.214;6.786;2023-02-08T04:45:36;103528.28;;;16.61;42.16
26839;BME280;40088;51.214;6.786;2023-02-08T04:55:37;103525.53;;;16.61;42.11
26839;BME280;40088;51.214;6.786;2023-02-08T05:05:37;103520.88;;;16.61;42.17
26839;BME280;40088;51.214;6.786;2023-02-08T05:15:38;103522.78;;;16.61;42.22
26839;BME280;40088;51.214;6.786;2023-02-08T05:25:38;103511.63;;;16.62;41.87
26839;BME280;40088;51.214;6.786;2023-02-08T05:35:39;103517.25;;;16.61;42.00
26839;BME280;40088;51.214;6.786;2023-02-08T05:45:39;103523.66;;;16.61;41.96
26839;BME280;40088;51.214;6.786;2023-02-08T05:55:43;103517.13;;;16.62;42.04
26839;BME280;40088;51.214;6.786;2023-02-08T06:05:44;103523.66;;;16.61;42.31
26839;BME280;40088;51.214;6.786;2023-02-08T06:15:44;103516.25;;;16.62;41.77
26839;BME280;40088;51.214;6.786;2023-02-08T06:25:45;103532.03;;;16.60;42.10
26839;BME280;40088;51.214;6.786;2023-02-08T06:35:46;103529.88;;;16.63;41.68
26839;BME280;40088;51.214;6.786;2023-02-08T06:45:46;103527.28;;;16.62;41.86
26839;BME280;40088;51.214;6.786;2023-02-08T06:55:48;103522.63;;;16.62;41.78
26839;BME280;40088;51.214;6.786;2023-02-08T07:05:48;103519.00;;;16.62;41.87
26839;BME280;40088;51.214;6.786;2023-02-08T07:15:49;103514.38;;;16.62;41.77
26839;BME280;40088;51.214;6.786;2023-02-08T07:26:03;103519.75;;;16.64;41.70
26839;BME280;40088;51.214;6.786;2023-02-08T07:36:04;103503.38;;;16.62;41.75
26839;BME280;40088;51.214;6.786;2023-02-08T07:46:09;103491.34;;;16.63;41.77
26839;BME280;40088;51.214;6.786;2023-02-08T07:56:10;103499.59;;;16.63;41.49
26839;BME280;40088;51.214;6.786;2023-02-08T08:06:10;103500.47;;;16.64;41.55
26839;BME280;40088;51.214;6.786;2023-02-08T08:16:11;103508.72;;;16.64;41.56
26839;BME280;40088;51.214;6.786;2023-02-08T08:26:13;103511.63;;;16.62;41.69
26839;BME280;40088;51.214;6.786;2023-02-08T08:36:14;103507.00;;;16.63;41.56
26839;BME280;40088;51.214;6.786;2023-02-08T08:46:14;103497.72;;;16.64;41.62
26839;BME280;40088;51.214;6.786;2023-02-08T08:56:15;103483.09;;;16.63;41.70
26839;BME280;40088;51.214;6.786;2023-02-08T09:06:16;103482.97;;;16.65;41.63
26839;BME280;40088;51.214;6.786;2023-02-08T09:16:17;103483.09;;;16.63;41.68
26839;BME280;40088;51.214;6.786;2023-02-08T09:26:19;103488.50;;;16.65;41.57
26839;BME280;40088;51.214;6.786;2023-02-08T09:36:21;103482.97;;;16.65;41.78
26839;BME280;40088;51.214;6.786;2023-02-08T09:46:25;103474.72;;;16.65;41.77
26839;BME280;40088;51.214;6.786;2023-02-08T09:56:30;103471.81;;;16.66;41.52
26839;BME280;40088;51.214;6.786;2023-02-08T10:06:32;103483.84;;;16.65;41.58
26839;BME280;40088;51.214;6.786;2023-02-08T10:16:49;103472.84;;;16.65;41.61
26839;BME280;40088;51.214;6.786;2023-02-08T10:37:20;103487.34;;;16.67;41.75
26839;BME280;40088;51.214;6.786;2023-02-08T10:47:45;103479.06;;;16.67;41.83
26839;BME280;40088;51.214;6.786;2023-02-08T10:57:49;103473.56;;;16.67;41.61
26839;BME280;40088;51.214;6.786;2023-02-08T11:08:07;103463.44;;;16.68;41.64
26839;BME280;40088;51.214;6.786;2023-02-08T11:18:22;103452.31;;;16.70;41.64
26839;BME280;40088;51.214;6.786;2023-02-08T11:28:28;103433.03;;;16.70;41.89
26839;BME280;40088;51.214;6.786;2023-02-08T11:38:29;103419.28;;;16.70;41.88
26839;BME280;40088;51.214;6.786;2023-02-08T11:48:49;103423.00;;;16.68;41.75
26839;BME280;40088;51.214;6.786;2023-02-08T11:59:04;103406.38;;;16.70;41.93
26839;BME280;40088;51.214;6.786;2023-02-08T12:09:10;103395.47;;;16.68;41.84
26839;BME280;40088;51.214;6.786;2023-02-08T12:39:55;103368.94;;;16.67;42.01
26839;BME280;40088;51.214;6.786;2023-02-08T12:50:37;103361.47;;;16.70;41.85
26839;BME280;40088;51.214;6.786;2023-02-08T13:00:41;103344.94;;;16.70;41.88
26839;BME280;40088;51.214;6.786;2023-02-08T13:10:45;103331.16;;;16.70;42.01
26839;BME280;40088;51.214;6.786;2023-02-08T13:20:51;103325.66;;;16.70;42.00
26839;BME280;40088;51.214;6.786;2023-02-08T13:30:55;103301.75;;;16.70;42.21
26839;BME280;40088;51.214;6.786;2023-02-08T13:41:17;103277.97;;;16.69;42.11
26839;BME280;40088;51.214;6.786;2023-02-08T14:01:35;103249.34;;;16.72;42.13
26839;BME280;40088;51.214;6.786;2023-02-08T14:22:00;103225.53;;;16.71;42.21
26839;BME280;40088;51.214;6.786;2023-02-08T14:32:01;103210.91;;;16.70;42.17
26839;BME280;40088;51.214;6.786;2023-02-08T14:42:05;103199.88;;;16.70;42.20
26839;BME280;40088;51.214;6.786;2023-02-08T14:52:19;103196.00;;;16.73;42.13
26839;BME280;40088;51.214;6.786;2023-02-08T15:02:22;103186.00;;;16.72;42.22
26839;BME280;40088;51.214;6.786;2023-02-08T15:12:27;103173.13;;;16.72;42.14
26839;BME280;40088;51.214;6.786;2023-02-08T15:22:34;103158.47;;;16.72;42.14
26839;BME280;40088;51.214;6.786;2023-02-08T15:32:35;103163.97;;;16.72;42.14
26839;BME280;40088;51.214;6.786;2023-02-08T15:42:42;103157.59;;;16.71;42.18
26839;BME280;40088;51.214;6.786;2023-02-08T15:52:42;103149.19;;;16.73;42.30
26839;BME280;40088;51.214;6.786;2023-02-08T16:02:43;103127.31;;;16.71;42.10
26839;BME280;40088;51.214;6.786;2023-02-08T16:12:51;103131.81;;;16.72;42.13
26839;BME280;40088;51.214;6.786;2023-02-08T16:33:19;103116.16;;;16.73;42.22
26839;BME280;40088;51.214;6.786;2023-02-08T16:43:27;103107.91;;;16.73;42.37
26839;BME280;40088;51.214;6.786;2023-02-08T16:53:30;103105.16;;;16.73;42.13
26839;BME280;40088;51.214;6.786;2023-02-08T17:03:31;103099.66;;;16.73;41.89
26839;BME280;40088;51.214;6.786;2023-02-08T17:13:32;103089.66;;;16.72;42.22
26839;BME280;40088;51.214;6.786;2023-02-08T17:23:32;103080.53;;;16.71;42.22
26839;BME280;40088;51.214;6.786;2023-02-08T17:33:32;103077.63;;;16.73;42.27
26839;BME280;40088;51.214;6.786;2023-02-08T17:43:36;103077.47;;;16.74;42.03
26839;BME280;40088;51.214;6.786;2023-02-08T17:53:36;103065.75;;;16.72;42.16
26839;BME280;40088;51.214;6.786;2023-02-08T18:03:42;103062.13;;;16.72;42.04
26839;BME280;40088;51.214;6.786;2023-02-08T18:13:44;103053.84;;;16.72;42.02
26839;BME280;40088;51.214;6.786;2023-02-08T18:23:45;103050.22;;;16.71;42.21
26839;BME280;40088;51.214;6.786;2023-02-08T18:33:47;103059.38;;;16.72;42.16
26839;BME280;40088;51.214;6.786;2023-02-08T18:43:48;103059.38;;;16.72;41.89
26839;BME280;40088;51.214;6.786;2023-02-08T18:53:51;103050.22;;;16.71;41.86
26839;BME280;40088;51.214;6.786;2023-02-08T19:03:52;103039.22;;;16.71;41.73
26839;BME280;40088;51.214;6.786;2023-02-08T19:13:57;103043.81;;;16.71;41.87
26839;BME280;40088;51.214;6.786;2023-02-08T19:24:00;103024.44;;;16.72;41.87
26839;BME280;40088;51.214;6.786;2023-02-08T19:34:01;103011.53;;;16.73;41.99
26839;BME280;40088;51.214;6.786;2023-02-08T19:44:05;103018.06;;;16.72;41.80
26839;BME280;40088;51.214;6.786;2023-02-08T19:54:06;103009.81;;;16.72;41.84
26839;BME280;40088;51.214;6.786;2023-02-08T20:04:09;103020.66;;;16.73;41.86
26839;BME280;40088;51.214;6.786;2023-02-08T20:14:11;103023.56;;;16.72;41.69
26839;BME280;40088;51.214;6.786;2023-02-08T20:24:14;103013.44;;;16.72;41.72
26839;BME280;40088;51.214;6.786;2023-02-08T20:34:15;103021.69;;;16.72;41.94
26839;BME280;40088;51.214;6.786;2023-02-08T20:44:17;103026.31;;;16.72;41.73
26839;BME280;40088;51.214;6.786;2023-02-08T20:54:17;103034.59;;;16.72;41.73
26839;BME280;40088;51.214;6.786;2023-02-08T21:04:18;103050.09;;;16.73;41.71
26839;BME280;40088;51.214;6.786;2023-02-08T21:14:22;103039.06;;;16.73;41.65
26839;BME280;40088;51.214;6.786;2023-02-08T21:24:22;103032.81;;;16.71;41.74
26839;BME280;40088;51.214;6.786;2023-02-08T21:34:23;103036.47;;;16.71;41.59
26839;BME280;40088;51.214;6.786;2023-02-08T21:44:23;103032.81;;;16.71;41.74
26839;BME280;40088;51.214;6.786;2023-02-08T21:54:26;103039.22;;;16.71;41.49
26839;BME280;40088;51.214;6.786;2023-02-08T22:04:43;103024.44;;;16.72;41.36
26839;BME280;40088;51.214;6.786;2023-02-08T22:15:01;103024.56;;;16.71;41.52
26839;BME280;40088;51.214;6.786;2023-02-08T22:25:02;103010.69;;;16.72;41.22
26839;BME280;40088;51.214;6.786;2023-02-08T22:35:02;103016.31;;;16.71;41.24
26839;BME280;40088;51.214;6.786;2023-02-08T22:45:02;103021.81;;;16.71;41.24
26839;BME280;40088;51.214;6.786;2023-02-08T22:55:04;103019.06;;;16.71;41.28
26839;BME280;40088;51.214;6.786;2023-02-08T23:05:05;103014.69;;;16.68;41.30
26839;BME280;40088;51.214;6.786;2023-02-08T23:15:06;103008.31;;;16.67;41.17
26839;BME280;40088;51.214;6.786;2023-02-08T23:25:06;103003.66;;;16.68;41.20
26839;BME280;40088;51.214;6.786;2023-02-08T23:35:08;103006.56;;;16.66;41.20
26839;BME280;40088;51.214;6.786;2023-02-08T23:45:08;103007.44;;;16.67;40.83
26839;BME280;40088;51.214;6.786;2023-02-08T23:55:09;102984.69;;;16.65;41.19
